Time;durP1;ratioP1;P1;durP2;ratioP2;P2;SDS_P1;SDS_P2;PMS_P1;PMS_P2;Temp;Humidity;BMP_temperature;BMP_pressure;BME280_temperature;BME280_humidity;BME280_pressure;Samples;Min_cycle;Max_cycle;Signal;HPM_P1;HPM_P2
2023/11/01 00:00:46;;;;;;;6.20;3.57;;;12.90;99.90;;;;;;5020015;28;20540;-82
2023/11/01 00:03:15;;;;;;;6.00;2.67;;;12.90;99.90;;;;;;5020910;28;20178;-82
2023/11/01 00:05:50;;;;;;;6.17;2.20;;;12.90;99.90;;;;;;5021748;28;20602;-81
2023/11/01 00:08:16;;;;;;;6.93;2.40;;;12.90;99.90;;;;;;5038114;28;20176;-80
2023/11/01 00:10:44;;;;;;;6.23;2.30;;;12.90;99.90;;;;;;5021862;28;20635;-79
2023/11/01 00:13:11;;;;;;;7.43;2.10;;;13.00;99.90;;;;;;5023546;28;20175;-80
2023/11/01 00:15:37;;;;;;;5.97;2.17;;;12.90;99.90;;;;;;5046481;28;20281;-77
2023/11/01 00:18:04;;;;;;;6.87;2.27;;;13.00;99.90;;;;;;5032228;28;20178;-79
2023/11/01 00:20:32;;;;;;;7.47;2.47;;;12.90;99.90;;;;;;5031738;28;20174;-80
2023/11/01 00:23:01;;;;;;;7.30;2.07;;;12.90;99.90;;;;;;5025798;28;20241;-80
2023/11/01 00:25:31;;;;;;;7.27;2.10;;;13.00;99.90;;;;;;5029521;28;20175;-79
2023/11/01 00:28:06;;;;;;;6.47;2.17;;;12.90;99.90;;;;;;5044688;28;20202;-80
2023/11/01 00:30:32;;;;;;;6.93;2.07;;;13.00;99.90;;;;;;5026990;28;20201;-80
2023/11/01 00:33:50;;;;;;;6.53;2.40;;;12.90;99.90;;;;;;5022570;28;20163;-81
2023/11/01 00:40:00;;;;;;;7.00;2.30;;;12.90;99.90;;;;;;5025836;28;20212;-81
2023/11/01 00:42:44;;;;;;;6.23;2.30;;;12.90;99.90;;;;;;5019251;28;20226;-79
2023/11/01 00:45:27;;;;;;;9.27;2.20;;;13.00;99.90;;;;;;5017773;28;20158;-82
2023/11/01 00:47:55;;;;;;;5.93;2.00;;;12.90;99.90;;;;;;5018582;28;20198;-82
2023/11/01 00:50:20;;;;;;;6.17;2.00;;;12.90;99.90;;;;;;5017674;28;20210;-81
2023/11/01 00:52:46;;;;;;;7.53;2.53;;;13.00;99.90;;;;;;5018783;28;20264;-80
2023/11/01 00:55:12;;;;;;;8.27;2.37;;;12.90;99.90;;;;;;5017319;28;20170;-79
2023/11/01 00:57:37;;;;;;;7.67;2.30;;;12.90;99.90;;;;;;5015664;28;20185;-81
2023/11/01 01:00:06;;;;;;;7.77;2.87;;;12.90;99.90;;;;;;5015459;28;20205;-81
2023/11/01 01:02:32;;;;;;;7.13;2.50;;;12.90;99.90;;;;;;5017990;28;20192;-81
2023/11/01 01:05:05;;;;;;;7.03;2.50;;;13.00;99.90;;;;;;5016093;28;20178;-81
2023/11/01 01:07:33;;;;;;;10.47;2.43;;;12.90;99.90;;;;;;5016472;28;20239;-81
2023/11/01 01:09:58;;;;;;;5.47;2.30;;;12.90;99.90;;;;;;5016736;28;20174;-82
2023/11/01 01:12:24;;;;;;;6.20;2.60;;;13.00;99.90;;;;;;5016922;28;20245;-81
2023/11/01 01:14:51;;;;;;;6.70;2.00;;;13.00;99.90;;;;;;5016121;28;20174;-78
2023/11/01 01:17:17;;;;;;;5.93;2.47;;;13.00;99.90;;;;;;5018509;28;20174;-81
2023/11/01 01:19:43;;;;;;;8.13;2.50;;;12.90;99.90;;;;;;5032742;28;20189;-81
2023/11/01 01:22:09;;;;;;;7.33;2.40;;;12.90;99.90;;;;;;5016040;28;20178;-83
2023/11/01 01:24:35;;;;;;;6.60;2.40;;;13.00;99.90;;;;;;5016608;28;20174;-81
2023/11/01 01:27:02;;;;;;;8.57;2.93;;;13.00;99.90;;;;;;5031775;28;20182;-85
2023/11/01 01:29:28;;;;;;;8.23;2.67;;;13.00;99.90;;;;;;5015859;28;20179;-80
2023/11/01 01:31:55;;;;;;;5.53;2.93;;;13.10;99.90;;;;;;5015485;28;20574;-83
2023/11/01 01:34:20;;;;;;;6.77;2.70;;;13.10;99.90;;;;;;5014388;28;20239;-81
2023/11/01 01:36:46;;;;;;;8.17;3.17;;;13.10;99.90;;;;;;5014154;28;20633;-81
2023/11/01 01:39:12;;;;;;;8.83;2.90;;;13.20;99.90;;;;;;5015333;28;20175;-79
2023/11/01 01:41:39;;;;;;;7.43;3.57;;;13.10;99.90;;;;;;5013998;28;20220;-79
2023/11/01 01:44:05;;;;;;;10.13;3.70;;;13.10;99.90;;;;;;5014279;28;20271;-81
2023/11/01 01:46:30;;;;;;;12.43;3.63;;;13.20;99.90;;;;;;5014754;28;20194;-80
2023/11/01 01:48:57;;;;;;;12.40;4.03;;;13.00;99.90;;;;;;5015253;28;20508;-80
2023/11/01 01:51:24;;;;;;;7.93;3.50;;;13.10;99.90;;;;;;5012624;28;20233;-79
2023/11/01 01:53:51;;;;;;;8.43;3.63;;;13.20;99.90;;;;;;5013692;28;20241;-80
2023/11/01 01:56:19;;;;;;;10.60;4.13;;;13.20;99.90;;;;;;5014724;28;20174;-81
2023/11/01 01:58:45;;;;;;;11.37;3.40;;;13.30;99.90;;;;;;5013403;28;20185;-81
2023/11/01 02:01:13;;;;;;;7.00;3.07;;;13.20;99.90;;;;;;5030115;28;20174;-80
2023/11/01 02:03:40;;;;;;;8.40;3.60;;;13.20;99.90;;;;;;5016083;28;20171;-81
2023/11/01 02:06:06;;;;;;;9.20;3.20;;;13.20;99.90;;;;;;5030581;28;20178;-81
2023/11/01 02:08:32;;;;;;;8.87;2.90;;;13.20;99.90;;;;;;5014207;28;20224;-81
2023/11/01 02:10:59;;;;;;;10.60;3.50;;;13.30;99.90;;;;;;5015187;28;20662;-79
2023/11/01 02:13:25;;;;;;;9.43;2.83;;;13.30;99.90;;;;;;5014850;28;20176;-81
2023/11/01 02:15:50;;;;;;;10.80;3.17;;;13.30;99.90;;;;;;5013606;28;20518;-83
2023/11/01 02:18:18;;;;;;;12.53;3.20;;;13.30;99.90;;;;;;5013731;28;20205;-80
2023/11/01 02:20:48;;;;;;;12.23;3.53;;;13.30;99.90;;;;;;5013611;28;20190;-83
2023/11/01 02:23:17;;;;;;;10.90;2.87;;;13.30;99.90;;;;;;5013416;28;20197;-82
2023/11/01 02:25:43;;;;;;;14.30;2.67;;;13.40;99.90;;;;;;5029781;28;20178;-81
2023/11/01 02:28:11;;;;;;;12.40;2.83;;;13.50;99.90;;;;;;5029890;28;20543;-80
2023/11/01 02:30:41;;;;;;;10.93;3.03;;;13.40;99.90;;;;;;5014667;28;20216;-82
2023/11/01 02:33:07;;;;;;;12.93;3.43;;;13.50;99.90;;;;;;5014895;28;20189;-82
2023/11/01 02:35:34;;;;;;;13.47;3.47;;;13.50;99.90;;;;;;5015216;28;20219;-79
2023/11/01 02:38:04;;;;;;;10.27;2.77;;;13.50;99.90;;;;;;5030080;28;20212;-81
2023/11/01 02:40:29;;;;;;;8.87;2.60;;;13.50;99.90;;;;;;5030070;28;20170;-82
2023/11/01 02:42:55;;;;;;;12.57;2.77;;;13.50;99.90;;;;;;5017399;28;20619;-82
2023/11/01 02:45:22;;;;;;;12.13;3.00;;;13.60;99.90;;;;;;5018677;28;20225;-80
2023/11/01 02:47:50;;;;;;;8.13;2.70;;;13.60;99.90;;;;;;5038035;28;20198;-80
2023/11/01 02:50:19;;;;;;;10.87;2.60;;;13.60;99.90;;;;;;5017739;28;20190;-78
2023/11/01 02:52:45;;;;;;;11.13;2.70;;;13.70;99.90;;;;;;5020273;28;20187;-83
2023/11/01 02:55:14;;;;;;;9.10;2.33;;;13.60;99.90;;;;;;5021276;28;20640;-79
2023/11/01 02:57:40;;;;;;;9.77;2.60;;;13.60;99.90;;;;;;5020298;28;20655;-81
2023/11/01 03:00:18;;;;;;;6.73;2.70;;;13.60;99.90;;;;;;5020295;28;20178;-80
2023/11/01 03:02:49;;;;;;;12.33;2.53;;;13.60;99.90;;;;;;5018638;28;20187;-79
2023/11/01 03:05:15;;;;;;;10.00;2.53;;;13.70;99.90;;;;;;5016774;28;20186;-81
2023/11/01 03:07:41;;;;;;;10.70;2.73;;;13.70;99.90;;;;;;5018394;28;20186;-81
2023/11/01 03:10:08;;;;;;;9.10;2.53;;;13.80;99.90;;;;;;5017197;28;20596;-85
2023/11/01 03:12:34;;;;;;;7.83;2.20;;;13.80;99.90;;;;;;5017501;28;20178;-80
2023/11/01 03:15:04;;;;;;;10.40;2.63;;;13.80;99.90;;;;;;5018158;28;20689;-79
2023/11/01 03:17:30;;;;;;;10.40;2.70;;;13.80;99.90;;;;;;5018427;28;20206;-79
2023/11/01 03:19:55;;;;;;;11.03;2.80;;;13.80;99.90;;;;;;5021279;28;20171;-79
2023/11/01 03:22:23;;;;;;;10.80;2.47;;;13.70;99.90;;;;;;5038968;28;20190;-79
2023/11/01 03:24:49;;;;;;;12.53;3.07;;;13.70;99.90;;;;;;5021993;28;20168;-78
2023/11/01 03:27:18;;;;;;;13.40;2.60;;;13.60;99.90;;;;;;5019059;28;20242;-80
2023/11/01 03:29:52;;;;;;;12.10;2.40;;;13.70;99.90;;;;;;5018747;28;20167;-80
2023/11/01 03:32:18;;;;;;;9.50;2.73;;;13.80;99.90;;;;;;5016955;28;20211;-80
2023/11/01 03:34:45;;;;;;;6.70;2.20;;;13.80;99.90;;;;;;5016481;28;20603;-81
2023/11/01 03:37:11;;;;;;;11.57;3.07;;;13.70;99.90;;;;;;5017922;28;20163;-80
2023/11/01 03:39:37;;;;;;;11.93;2.67;;;13.70;99.90;;;;;;5016428;28;20182;-80
2023/11/01 03:42:04;;;;;;;12.80;3.10;;;13.70;99.90;;;;;;5017321;28;20178;-81
2023/11/01 03:44:34;;;;;;;10.77;2.77;;;13.70;99.90;;;;;;5017174;28;20188;-80
2023/11/01 03:47:01;;;;;;;10.50;2.57;;;13.70;99.90;;;;;;5032377;28;20209;-80
2023/11/01 03:49:29;;;;;;;9.23;2.67;;;13.70;99.90;;;;;;5017282;28;20178;-79
2023/11/01 03:52:00;;;;;;;9.73;2.60;;;13.80;99.90;;;;;;5017446;28;20214;-80
2023/11/01 03:54:25;;;;;;;9.57;2.57;;;13.70;99.90;;;;;;5015712;28;20170;-80
2023/11/01 03:56:52;;;;;;;10.03;2.90;;;13.70;99.90;;;;;;5016635;28;20170;-79
2023/11/01 03:59:18;;;;;;;10.57;2.33;;;13.70;99.90;;;;;;5016887;28;20163;-78
2023/11/01 04:01:43;;;;;;;8.87;2.63;;;13.70;99.90;;;;;;5016367;28;20190;-82
2023/11/01 04:04:10;;;;;;;9.33;2.70;;;13.70;99.90;;;;;;5017729;28;20160;-79
2023/11/01 04:06:37;;;;;;;11.30;2.73;;;13.70;99.90;;;;;;5017214;28;20202;-80
2023/11/01 04:09:04;;;;;;;9.30;2.83;;;13.60;99.90;;;;;;5016477;28;20166;-81
2023/11/01 04:11:33;;;;;;;11.33;2.93;;;13.60;99.90;;;;;;5031508;28;20609;-80
2023/11/01 04:13:59;;;;;;;11.33;2.93;;;13.60;99.90;;;;;;5016290;28;20249;-80
2023/11/01 04:16:28;;;;;;;12.97;3.33;;;13.60;99.90;;;;;;5015941;28;20180;-80
2023/11/01 04:18:56;;;;;;;9.17;2.80;;;13.60;99.90;;;;;;5016019;28;20687;-79
2023/11/01 04:21:22;;;;;;;10.67;2.93;;;13.60;99.90;;;;;;5014459;28;20170;-79
2023/11/01 04:23:49;;;;;;;13.73;3.47;;;13.60;99.90;;;;;;5015643;28;20258;-77
2023/11/01 04:26:15;;;;;;;12.87;3.53;;;13.60;99.90;;;;;;5015876;28;20679;-79
2023/11/01 04:28:41;;;;;;;9.63;3.03;;;13.50;99.90;;;;;;5031177;28;20182;-78
2023/11/01 04:31:07;;;;;;;8.43;3.00;;;13.50;99.90;;;;;;5015964;28;20193;-79
2023/11/01 04:33:33;;;;;;;11.43;4.00;;;13.50;99.90;;;;;;5015878;28;20182;-80
2023/11/01 04:35:59;;;;;;;11.67;2.93;;;13.60;99.90;;;;;;5016494;28;20163;-80
2023/11/01 04:38:24;;;;;;;17.07;3.83;;;13.60;99.90;;;;;;5015136;28;20179;-81
2023/11/01 04:40:50;;;;;;;12.73;3.13;;;13.60;99.90;;;;;;5015280;28;20178;-81
2023/11/01 04:43:19;;;;;;;11.93;3.23;;;13.60;99.90;;;;;;5017311;28;20213;-80
2023/11/01 04:45:46;;;;;;;8.67;3.10;;;13.60;99.90;;;;;;5017287;28;20158;-81
2023/11/01 04:48:12;;;;;;;12.13;2.77;;;13.60;99.90;;;;;;5016825;28;20245;-79
2023/11/01 04:50:37;;;;;;;13.60;2.90;;;13.60;99.90;;;;;;5017560;28;20261;-81
2023/11/01 04:53:03;;;;;;;10.97;2.77;;;13.60;99.90;;;;;;5017532;28;20201;-80
2023/11/01 04:55:30;;;;;;;14.37;3.03;;;13.60;99.90;;;;;;5016895;28;20632;-79
2023/11/01 04:57:55;;;;;;;12.30;3.20;;;13.60;99.90;;;;;;5019275;28;20246;-80
2023/11/01 05:00:21;;;;;;;9.07;3.03;;;13.60;99.90;;;;;;5018404;28;20231;-80
2023/11/01 05:02:48;;;;;;;9.77;2.63;;;13.60;99.90;;;;;;5022210;28;20269;-81
2023/11/01 05:05:14;;;;;;;12.30;2.77;;;13.60;99.90;;;;;;5032468;28;20214;-81
2023/11/01 05:07:40;;;;;;;9.57;3.00;;;13.60;99.90;;;;;;5030663;28;20174;-79
2023/11/01 05:10:07;;;;;;;9.10;2.83;;;13.60;99.90;;;;;;5022887;28;20166;-78
2023/11/01 05:12:34;;;;;;;14.50;3.13;;;13.60;99.90;;;;;;5019105;28;20170;-79
2023/11/01 05:15:00;;;;;;;15.97;3.37;;;13.60;99.90;;;;;;5018958;28;20163;-76
2023/11/01 05:17:27;;;;;;;11.47;2.80;;;13.60;99.90;;;;;;5019087;28;20296;-78
2023/11/01 05:19:55;;;;;;;10.90;3.30;;;13.60;99.90;;;;;;5017637;28;20159;-79
2023/11/01 05:22:21;;;;;;;15.97;3.10;;;13.60;99.90;;;;;;5017185;28;20183;-79
2023/11/01 05:24:51;;;;;;;8.60;2.53;;;13.60;99.90;;;;;;5016500;28;20229;-79
2023/11/01 05:27:19;;;;;;;8.83;3.07;;;13.70;99.90;;;;;;5016974;28;20164;-79
2023/11/01 05:29:51;;;;;;;10.50;2.70;;;13.70;99.90;;;;;;5016279;28;20555;-78
2023/11/01 05:32:18;;;;;;;10.87;2.80;;;13.60;99.90;;;;;;5016699;28;20734;-81
2023/11/01 05:34:45;;;;;;;10.10;2.80;;;13.70;99.90;;;;;;5017226;28;20253;-80
2023/11/01 05:37:17;;;;;;;12.00;3.40;;;13.70;99.90;;;;;;5016987;28;20178;-80
2023/11/01 05:39:44;;;;;;;13.17;3.00;;;13.70;99.90;;;;;;5016933;28;20249;-79
2023/11/01 05:42:11;;;;;;;11.30;3.03;;;13.60;99.90;;;;;;5030842;28;20217;-78
2023/11/01 05:44:38;;;;;;;11.90;2.97;;;13.60;99.90;;;;;;5034283;28;20166;-80
2023/11/01 05:47:03;;;;;;;11.27;2.50;;;13.60;99.90;;;;;;5032333;28;20246;-79
2023/11/01 05:49:31;;;;;;;11.80;3.23;;;13.70;99.90;;;;;;5020674;28;20541;-79
2023/11/01 05:51:57;;;;;;;9.33;3.00;;;13.70;99.90;;;;;;5016721;28;20210;-80
2023/11/01 05:54:23;;;;;;;13.27;3.33;;;13.70;99.90;;;;;;5016987;28;20162;-81
2023/11/01 05:56:50;;;;;;;9.90;2.67;;;13.60;99.90;;;;;;5015160;28;20166;-80
2023/11/01 05:59:23;;;;;;;12.10;3.20;;;13.60;99.90;;;;;;5013835;28;20174;-80
2023/11/01 06:01:52;;;;;;;10.77;2.73;;;13.70;99.90;;;;;;5014963;28;20163;-80
2023/11/01 06:04:20;;;;;;;9.40;2.23;;;13.70;99.90;;;;;;5015117;28;20601;-80
2023/11/01 06:06:47;;;;;;;13.23;2.80;;;13.70;99.90;;;;;;5017439;28;20265;-80
2023/11/01 06:09:18;;;;;;;11.40;2.40;;;13.60;99.90;;;;;;5017566;28;20201;-79
2023/11/01 06:11:44;;;;;;;9.90;2.37;;;13.60;99.90;;;;;;5015978;28;20674;-78
2023/11/01 06:14:09;;;;;;;11.80;2.70;;;13.60;99.90;;;;;;5015673;28;20670;-80
2023/11/01 06:16:36;;;;;;;9.23;2.50;;;13.60;99.90;;;;;;5022017;28;20177;-77
2023/11/01 06:19:01;;;;;;;9.77;2.43;;;13.50;99.90;;;;;;5044954;28;20693;-78
2023/11/01 06:21:27;;;;;;;9.43;2.73;;;13.50;99.90;;;;;;5029153;28;20182;-81
2023/11/01 06:23:53;;;;;;;10.70;2.43;;;13.60;99.90;;;;;;5029251;28;20175;-81
2023/11/01 06:26:19;;;;;;;8.37;2.53;;;13.50;99.90;;;;;;5033405;28;20174;-80
2023/11/01 06:28:47;;;;;;;10.67;2.47;;;13.50;99.90;;;;;;5031663;28;20253;-80
2023/11/01 06:31:13;;;;;;;12.07;2.87;;;13.50;99.90;;;;;;5025889;28;20214;-80
2023/11/01 06:33:42;;;;;;;13.63;2.67;;;13.50;99.90;;;;;;5016558;28;20170;-79
2023/11/01 06:36:11;;;;;;;9.60;2.73;;;13.40;99.90;;;;;;5018104;28;20224;-78
2023/11/01 06:38:39;;;;;;;10.17;2.63;;;13.40;99.90;;;;;;5015994;28;20184;-79
2023/11/01 06:41:08;;;;;;;12.97;3.13;;;13.50;99.90;;;;;;5016076;28;20181;-80
2023/11/01 06:43:37;;;;;;;7.20;2.40;;;13.50;99.90;;;;;;5015852;28;20193;-78
2023/11/01 06:46:03;;;;;;;12.90;2.60;;;13.50;99.90;;;;;;5014447;28;20181;-79
2023/11/01 06:48:44;;;;;;;8.67;2.60;;;13.50;99.90;;;;;;5015419;28;20201;-79
2023/11/01 06:51:10;;;;;;;10.17;2.20;;;13.50;99.90;;;;;;5029828;28;20226;-80
2023/11/01 06:53:54;;;;;;;9.20;2.20;;;13.50;99.90;;;;;;5013704;28;20178;-77
2023/11/01 06:56:20;;;;;;;8.87;2.07;;;13.50;99.90;;;;;;5015135;28;20255;-78
2023/11/01 06:58:53;;;;;;;10.67;2.63;;;13.50;99.90;;;;;;5030348;28;20178;-79
2023/11/01 07:01:22;;;;;;;6.77;2.20;;;13.60;99.90;;;;;;5013592;28;20643;-79
2023/11/01 07:03:47;;;;;;;10.63;3.60;;;13.60;99.90;;;;;;5015283;28;20191;-78
2023/11/01 07:06:14;;;;;;;11.30;2.83;;;13.50;99.90;;;;;;5013683;28;20245;-78
2023/11/01 07:08:44;;;;;;;11.53;2.70;;;13.60;99.90;;;;;;5014179;28;20260;-83
2023/11/01 07:11:10;;;;;;;9.07;2.27;;;13.60;99.90;;;;;;5015407;28;20198;-82
2023/11/01 07:13:36;;;;;;;10.33;2.17;;;13.60;99.90;;;;;;5013740;28;20174;-81
2023/11/01 07:16:03;;;;;;;7.20;2.17;;;13.60;99.90;;;;;;5014948;28;20612;-78
2023/11/01 07:18:29;;;;;;;9.33;2.53;;;13.60;99.90;;;;;;5014856;28;20198;-81
2023/11/01 07:20:54;;;;;;;11.77;2.33;;;13.60;99.90;;;;;;5015054;28;20190;-80
2023/11/01 07:23:20;;;;;;;6.93;1.83;;;13.60;99.90;;;;;;5015794;28;20553;-81
2023/11/01 07:25:45;;;;;;;19.90;10.23;;;13.60;99.90;;;;;;5016278;28;20517;-78
2023/11/01 07:28:11;;;;;;;8.47;2.40;;;13.60;99.90;;;;;;5017960;28;20204;-79
2023/11/01 07:30:37;;;;;;;13.03;2.87;;;13.40;99.90;;;;;;5020199;28;20194;-84
2023/11/01 07:33:04;;;;;;;6.30;2.07;;;13.60;99.90;;;;;;5019121;28;20705;-80
2023/11/01 07:35:29;;;;;;;9.93;2.57;;;13.60;99.90;;;;;;5018496;28;20174;-82
2023/11/01 07:37:55;;;;;;;16.10;2.60;;;13.70;99.90;;;;;;5017409;28;20635;-80
2023/11/01 07:40:21;;;;;;;7.23;1.70;;;13.60;99.90;;;;;;5017075;28;20174;-80
2023/11/01 07:42:47;;;;;;;8.50;2.17;;;13.80;99.90;;;;;;5017946;28;20194;-81
2023/11/01 07:45:14;;;;;;;9.67;2.40;;;13.70;99.90;;;;;;5018174;28;20178;-79
2023/11/01 07:47:41;;;;;;;9.13;2.80;;;13.70;99.90;;;;;;5017169;28;20204;-82
2023/11/01 07:50:08;;;;;;;8.87;2.13;;;13.70;99.90;;;;;;5017398;28;20222;-81
2023/11/01 07:52:35;;;;;;;9.70;2.50;;;13.70;99.90;;;;;;5016944;28;20638;-80
2023/11/01 07:55:00;;;;;;;6.90;2.20;;;13.70;99.90;;;;;;5017107;28;20174;-80
2023/11/01 07:57:26;;;;;;;7.30;2.20;;;13.80;99.90;;;;;;5017341;28;20186;-81
2023/11/01 07:59:53;;;;;;;10.60;2.20;;;13.70;99.90;;;;;;5033182;28;20175;-81
2023/11/01 08:02:19;;;;;;;13.73;3.07;;;13.80;99.90;;;;;;5018103;28;20265;-80
2023/11/01 08:04:45;;;;;;;10.37;2.40;;;13.80;99.90;;;;;;5016579;28;20198;-81
2023/11/01 08:07:11;;;;;;;10.77;2.47;;;13.80;99.90;;;;;;5016253;28;20635;-79
2023/11/01 08:09:38;;;;;;;9.80;2.20;;;13.80;99.90;;;;;;5017626;28;20167;-81
2023/11/01 08:12:05;;;;;;;6.57;2.17;;;13.80;99.90;;;;;;5018350;28;20199;-83
2023/11/01 08:14:30;;;;;;;9.80;2.40;;;13.90;99.90;;;;;;5017952;28;20177;-84
2023/11/01 08:16:56;;;;;;;6.23;1.90;;;13.90;99.90;;;;;;5018099;28;20168;-82
2023/11/01 08:19:22;;;;;;;7.77;2.27;;;14.00;99.90;;;;;;5017735;28;20158;-80
2023/11/01 08:21:47;;;;;;;9.20;2.50;;;14.10;99.90;;;;;;5017973;28;20186;-79
2023/11/01 08:24:13;;;;;;;6.87;2.40;;;14.10;99.90;;;;;;5018318;28;20528;-80
2023/11/01 08:26:38;;;;;;;6.70;1.93;;;14.10;99.90;;;;;;5017689;28;20202;-82
2023/11/01 08:29:04;;;;;;;8.13;2.40;;;14.10;99.90;;;;;;5017544;28;20172;-82
2023/11/01 08:31:30;;;;;;;5.07;1.93;;;14.20;99.90;;;;;;5017473;28;20203;-79
2023/11/01 08:33:56;;;;;;;8.10;2.10;;;14.30;99.90;;;;;;5017895;28;20623;-81
2023/11/01 08:36:23;;;;;;;6.40;1.90;;;14.30;99.90;;;;;;5016074;28;20193;-78
2023/11/01 08:38:50;;;;;;;10.10;2.43;;;14.40;99.90;;;;;;5031536;28;20191;-82
2023/11/01 08:41:18;;;;;;;8.73;2.20;;;14.50;99.90;;;;;;5016496;28;20542;-81
2023/11/01 08:43:43;;;;;;;9.93;2.07;;;14.50;99.20;;;;;;5016485;28;20167;-78
2023/11/01 08:46:11;;;;;;;8.00;1.80;;;14.60;97.70;;;;;;5016384;28;20646;-79
2023/11/01 08:48:37;;;;;;;10.10;2.30;;;14.60;96.80;;;;;;5017256;28;20170;-79
2023/11/01 08:51:03;;;;;;;8.30;1.80;;;14.60;96.90;;;;;;5017685;28;20210;-81
2023/11/01 08:53:30;;;;;;;9.43;2.40;;;14.70;96.40;;;;;;5018226;28;20218;-79
2023/11/01 08:55:56;;;;;;;7.77;2.70;;;14.90;96.10;;;;;;5018511;28;20230;-81
2023/11/01 08:58:27;;;;;;;7.17;2.07;;;14.90;94.40;;;;;;5018218;28;20637;-80
2023/11/01 09:01:08;;;;;;;8.43;2.47;;;15.00;92.50;;;;;;5016559;28;20177;-80
2023/11/01 09:03:35;;;;;;;10.23;2.20;;;15.10;92.50;;;;;;5017620;28;20218;-79
2023/11/01 09:06:03;;;;;;;6.73;1.90;;;15.20;89.70;;;;;;5032774;28;20651;-81
2023/11/01 09:08:28;;;;;;;7.23;1.97;;;15.10;86.10;;;;;;5017375;28;20526;-82
2023/11/01 09:10:58;;;;;;;9.57;2.00;;;15.10;86.10;;;;;;5016755;28;20665;-80
2023/11/01 09:13:24;;;;;;;6.13;1.67;;;15.10;86.40;;;;;;5015395;28;20193;-79
2023/11/01 09:15:50;;;;;;;10.67;2.30;;;15.10;85.00;;;;;;5015125;28;20228;-81
2023/11/01 09:18:22;;;;;;;10.00;2.20;;;15.00;82.70;;;;;;5016019;28;20172;-80
2023/11/01 09:20:48;;;;;;;7.43;2.00;;;15.00;83.70;;;;;;5015788;28;20591;-79
2023/11/01 09:23:15;;;;;;;8.53;2.20;;;15.10;84.30;;;;;;5022498;28;20650;-80
2023/11/01 09:25:47;;;;;;;7.57;2.50;;;15.10;81.20;;;;;;5017178;28;20184;-81
2023/11/01 09:28:13;;;;;;;7.37;2.10;;;15.10;79.80;;;;;;5016550;28;20177;-80
2023/11/01 09:30:41;;;;;;;8.93;2.03;;;15.10;78.70;;;;;;5016539;28;20193;-80
2023/11/01 09:33:07;;;;;;;9.07;1.80;;;15.30;77.60;;;;;;5014944;28;20176;-78
2023/11/01 09:35:34;;;;;;;5.60;1.73;;;15.30;73.20;;;;;;5015334;28;20221;-79
2023/11/01 09:38:02;;;;;;;7.03;1.90;;;15.30;71.60;;;;;;5014959;28;20657;-79
2023/11/01 09:40:28;;;;;;;7.53;2.20;;;15.40;71.20;;;;;;5015562;28;20183;-81
2023/11/01 09:42:56;;;;;;;6.10;1.80;;;15.40;70.20;;;;;;5015171;28;20179;-83
2023/11/01 09:45:22;;;;;;;5.13;1.70;;;15.50;65.30;;;;;;5015130;28;20733;-80
2023/11/01 09:47:50;;;;;;;6.17;1.90;;;15.50;63.80;;;;;;5015391;28;20223;-82
2023/11/01 09:50:17;;;;;;;7.50;2.00;;;15.50;61.40;;;;;;5015233;28;20171;-80
2023/11/01 09:52:43;;;;;;;5.03;1.50;;;15.60;62.40;;;;;;5014357;28;20224;-78
2023/11/01 09:55:12;;;;;;;8.07;1.97;;;15.60;58.60;;;;;;5015299;28;20162;-82
2023/11/01 09:57:42;;;;;;;8.97;2.23;;;15.70;58.50;;;;;;5014975;28;20183;-81
2023/11/01 10:00:11;;;;;;;7.00;1.97;;;15.70;56.10;;;;;;5015682;28;20190;-83
2023/11/01 10:02:38;;;;;;;9.47;1.87;;;15.80;54.00;;;;;;5015604;28;20179;-83
2023/11/01 10:05:06;;;;;;;6.97;1.77;;;15.80;52.30;;;;;;5016381;28;20171;-80
2023/11/01 10:07:31;;;;;;;9.03;2.10;;;15.90;50.40;;;;;;5013727;28;20700;-82
2023/11/01 10:09:58;;;;;;;6.73;2.40;;;15.90;48.90;;;;;;5015041;28;20243;-80
2023/11/01 10:12:25;;;;;;;5.80;1.97;;;15.90;47.70;;;;;;5030324;28;20580;-81
2023/11/01 10:14:52;;;;;;;5.60;2.20;;;15.80;48.20;;;;;;5030810;28;20202;-82
2023/11/01 10:17:18;;;;;;;7.77;2.10;;;15.70;49.00;;;;;;5015451;28;20533;-82
2023/11/01 10:19:44;;;;;;;7.27;2.27;;;15.70;47.50;;;;;;5015981;28;20167;-79
2023/11/01 10:22:12;;;;;;;8.87;2.27;;;15.70;47.00;;;;;;5016327;28;20173;-83
2023/11/01 10:24:41;;;;;;;5.90;2.10;;;15.70;46.00;;;;;;5017557;28;20167;-84
2023/11/01 10:27:07;;;;;;;5.13;1.90;;;15.60;46.80;;;;;;5017695;28;20220;-80
2023/11/01 10:29:42;;;;;;;6.13;1.80;;;15.60;46.50;;;;;;5024289;28;20171;-81
2023/11/01 10:32:10;;;;;;;5.87;1.73;;;15.60;44.50;;;;;;5032041;28;20212;-80
2023/11/01 10:34:36;;;;;;;7.30;2.00;;;15.70;44.00;;;;;;5030753;28;20179;-78
2023/11/01 10:37:08;;;;;;;5.10;1.77;;;15.60;42.40;;;;;;5017973;28;20189;-81
2023/11/01 10:39:38;;;;;;;6.80;1.80;;;15.80;41.70;;;;;;5017558;28;20161;-82
2023/11/01 10:42:07;;;;;;;7.00;2.20;;;15.90;38.40;;;;;;5032167;28;20232;-80
2023/11/01 10:44:36;;;;;;;7.37;2.20;;;16.00;37.40;;;;;;5015068;28;20270;-80
2023/11/01 10:47:23;;;;;;;5.63;1.77;;;16.10;34.90;;;;;;5016647;28;20194;-81
2023/11/01 10:49:53;;;;;;;6.40;2.30;;;16.20;29.30;;;;;;5014026;28;20210;-80
2023/11/01 10:52:21;;;;;;;4.93;1.57;;;16.30;27.30;;;;;;5015951;28;20208;-82
2023/11/01 10:54:50;;;;;;;4.13;1.60;;;16.30;26.80;;;;;;5015687;28;20229;-80
2023/11/01 10:57:18;;;;;;;6.17;2.03;;;16.30;21.40;;;;;;5014513;28;20221;-81
2023/11/01 11:00:12;;;;;;;4.47;1.77;;;16.20;22.40;;;;;;5031839;28;20636;-81
2023/11/01 11:03:07;;;;;;;9.73;2.30;;;16.20;23.80;;;;;;5017403;28;20263;-80
2023/11/01 11:05:40;;;;;;;7.10;1.90;;;16.20;23.30;;;;;;5020374;28;20335;-82
2023/11/01 11:08:10;;;;;;;5.93;1.80;;;16.20;22.00;;;;;;5034551;28;20164;-83
2023/11/01 11:10:39;;;;;;;5.07;1.60;;;16.30;23.20;;;;;;5040246;28;20196;-79
2023/11/01 11:13:13;;;;;;;6.83;1.40;;;16.30;22.10;;;;;;5038485;28;20221;-79
2023/11/01 11:15:56;;;;;;;6.93;1.53;;;16.30;19.40;;;;;;5027346;28;20155;-80
2023/11/01 11:18:24;;;;;;;4.87;1.30;;;16.40;16.20;;;;;;5020292;28;20175;-82
2023/11/01 11:20:52;;;;;;;4.47;1.60;;;16.30;16.30;;;;;;5018959;28;20180;-81
2023/11/01 11:23:21;;;;;;;9.40;1.50;;;16.40;2.40;;;;;;5018870;28;20197;-80
2023/11/01 11:25:51;;;;;;;5.40;1.40;;;16.40;1.00;;;;;;5019949;28;20156;-80
2023/11/01 11:28:40;;;;;;;6.20;1.40;;;16.50;1.00;;;;;;5020270;28;20223;-81
2023/11/01 11:31:17;;;;;;;4.57;1.60;;;16.40;1.00;;;;;;5019676;28;20213;-79
2023/11/01 11:34:08;;;;;;;5.07;1.50;;;16.50;1.00;;;;;;5020170;28;20245;-80
2023/11/01 11:36:36;;;;;;;4.53;1.50;;;16.50;1.00;;;;;;5019097;28;20237;-79
2023/11/01 11:39:05;;;;;;;4.13;1.73;;;16.50;1.00;;;;;;5020135;28;20175;-81
2023/11/01 11:42:17;;;;;;;6.40;1.80;;;16.50;1.00;;;;;;5018845;28;20161;-80
2023/11/01 11:45:02;;;;;;;4.10;1.63;;;16.60;1.00;;;;;;5018640;28;20167;-80
2023/11/01 11:47:29;;;;;;;4.20;1.53;;;16.50;1.00;;;;;;5018485;28;20200;-79
2023/11/01 11:50:06;;;;;;;4.43;1.30;;;16.50;1.00;;;;;;5017982;28;20663;-81
2023/11/01 11:52:31;;;;;;;4.87;1.50;;;16.30;1.00;;;;;;5017644;28;20233;-81
2023/11/01 11:55:00;;;;;;;5.50;1.87;;;16.30;1.00;;;;;;5017386;28;20179;-80
2023/11/01 11:57:30;;;;;;;3.77;1.53;;;16.20;1.00;;;;;;5016471;28;20176;-80
2023/11/01 12:00:04;;;;;;;3.23;1.40;;;16.30;1.00;;;;;;5017578;28;20228;-82
2023/11/01 12:02:30;;;;;;;6.00;1.60;;;16.30;1.00;;;;;;5016254;28;20180;-83
2023/11/01 12:04:57;;;;;;;5.23;1.53;;;16.30;1.00;;;;;;5017228;28;20661;-82
2023/11/01 12:07:24;;;;;;;7.10;1.60;;;16.10;1.00;;;;;;5017307;28;20188;-83
2023/11/01 12:09:53;;;;;;;4.33;1.47;;;16.10;1.00;;;;;;5017128;28;20543;-78
2023/11/01 12:12:21;;;;;;;10.10;2.10;;;16.00;1.00;;;;;;5017720;28;20203;-85
2023/11/01 12:15:00;;;;;;;5.40;1.87;;;16.00;1.00;;;;;;5016492;28;20177;-83
2023/11/01 12:17:28;;;;;;;7.80;2.43;;;16.00;1.00;;;;;;5018778;28;20188;-82
2023/11/01 12:19:55;;;;;;;7.93;2.00;;;16.00;1.00;;;;;;5019360;28;20242;-81
2023/11/01 12:22:21;;;;;;;12.53;3.30;;;16.10;1.00;;;;;;5021249;28;20188;-82
2023/11/01 12:24:48;;;;;;;4.60;1.93;;;16.00;1.00;;;;;;5027117;28;20177;-80
2023/11/01 12:27:17;;;;;;;6.17;1.60;;;16.00;1.00;;;;;;5035325;28;20197;-79
2023/11/01 12:29:49;;;;;;;6.73;1.63;;;16.00;1.00;;;;;;5033331;28;20193;-80
2023/11/01 12:32:21;;;;;;;6.90;2.50;;;16.00;1.00;;;;;;5029230;28;20210;-80
2023/11/01 12:34:51;;;;;;;7.47;1.90;;;16.00;1.00;;;;;;5048170;28;20175;-81
2023/11/01 12:37:21;;;;;;;6.57;1.90;;;15.90;1.00;;;;;;5032084;28;20182;-79
2023/11/01 12:40:12;;;;;;;5.03;1.43;;;15.90;1.00;;;;;;5030691;28;20262;-80
2023/11/01 12:42:45;;;;;;;4.87;1.80;;;15.70;1.00;;;;;;5035171;28;20174;-82
2023/11/01 12:45:15;;;;;;;5.83;1.50;;;15.70;1.00;;;;;;5020083;28;20626;-82
2023/11/01 12:47:52;;;;;;;5.00;1.50;;;15.60;1.00;;;;;;5019099;28;20190;-80
2023/11/01 12:50:24;;;;;;;5.37;1.80;;;15.50;1.00;;;;;;5018298;28;20182;-81
2023/11/01 12:52:58;;;;;;;4.47;1.30;;;15.50;1.00;;;;;;5017477;28;20284;-81
2023/11/01 12:55:26;;;;;;;5.67;1.57;;;15.40;4.30;;;;;;5017844;28;20175;-80